createdAt,value
2017-12-26T00:02:09.018Z,9.73
2017-12-26T00:07:55.643Z,10.03
2017-12-26T00:13:29.359Z,9.27
2017-12-26T00:18:57.598Z,7.50
2017-12-26T00:24:25.862Z,6.20
2017-12-26T00:29:55.785Z,5.03
2017-12-26T00:35:23.975Z,6.80
2017-12-26T00:40:52.181Z,8.73
2017-12-26T00:46:20.401Z,6.73
2017-12-26T00:51:48.615Z,13.07
2017-12-26T00:57:16.824Z,12.83
2017-12-26T01:02:46.016Z,7.40
2017-12-26T01:08:14.703Z,7.63
2017-12-26T01:13:42.964Z,8.93
2017-12-26T01:19:11.149Z,9.23
2017-12-26T01:24:39.421Z,10.30
2017-12-26T01:30:15.130Z,7.87
2017-12-26T01:35:43.328Z,9.23
2017-12-26T01:41:11.586Z,8.37
2017-12-26T01:46:39.777Z,7.40
2017-12-26T01:52:07.981Z,7.63
2017-12-26T01:57:36.170Z,8.27
2017-12-26T02:03:17.039Z,7.33
2017-12-26T02:08:45.274Z,6.47
2017-12-26T02:14:13.474Z,8.10
2017-12-26T02:19:42.434Z,8.60
2017-12-26T02:25:10.654Z,6.13
2017-12-26T02:30:39.160Z,7.00
2017-12-26T02:36:07.385Z,6.03
2017-12-26T02:41:35.600Z,5.10
2017-12-26T02:47:03.881Z,4.37
2017-12-26T02:52:32.857Z,4.87
2017-12-26T02:58:01.070Z,5.43
2017-12-26T03:03:29.357Z,5.00
2017-12-26T03:08:58.582Z,4.23
2017-12-26T03:14:26.812Z,4.60
2017-12-26T03:19:54.997Z,4.87
2017-12-26T03:25:23.232Z,5.37
2017-12-26T03:30:58.201Z,5.20
2017-12-26T03:36:26.450Z,4.70
2017-12-26T03:41:59.641Z,4.63
2017-12-26T03:47:27.925Z,4.17
2017-12-26T03:52:56.880Z,5.57
2017-12-26T03:58:25.076Z,6.87
2017-12-26T04:03:54.049Z,4.90
2017-12-26T04:09:22.245Z,5.77
2017-12-26T04:15:02.676Z,6.63
2017-12-26T04:20:30.867Z,3.53
2017-12-26T04:25:59.083Z,3.17
2017-12-26T04:31:28.330Z,2.00
2017-12-26T04:36:57.333Z,2.03
2017-12-26T04:42:35.572Z,1.80
2017-12-26T04:48:03.786Z,1.20
2017-12-26T04:53:31.987Z,1.20
2017-12-26T04:59:00.971Z,1.10
2017-12-26T05:04:29.172Z,1.40
2017-12-26T05:09:57.368Z,1.90
2017-12-26T05:15:26.385Z,1.53
2017-12-26T05:20:54.586Z,1.17
2017-12-26T05:26:22.793Z,0.80
2017-12-26T05:31:50.974Z,1.17
2017-12-26T05:37:19.941Z,2.00
2017-12-26T05:42:48.449Z,1.33
2017-12-26T05:48:16.635Z,1.00
2017-12-26T05:53:51.761Z,1.30
2017-12-26T05:59:19.949Z,2.47
2017-12-26T06:04:50.106Z,3.83
2017-12-26T06:10:18.316Z,2.23
2017-12-26T06:15:46.503Z,2.83
2017-12-26T06:21:14.686Z,2.10
2017-12-26T06:26:42.885Z,1.30
2017-12-26T06:32:11.112Z,1.30
2017-12-26T06:37:39.298Z,1.87
2017-12-26T06:43:08.532Z,2.13
2017-12-26T06:48:36.947Z,1.40
2017-12-26T06:54:08.272Z,2.40
2017-12-26T06:59:36.506Z,2.10
2017-12-26T07:05:04.698Z,3.57
2017-12-26T07:10:33.708Z,1.30
2017-12-26T07:16:02.316Z,2.23
2017-12-26T07:21:36.817Z,3.87
2017-12-26T07:27:05.031Z,4.33
2017-12-26T07:32:33.215Z,3.53
2017-12-26T07:38:01.401Z,2.80
2017-12-26T07:43:48.845Z,7.80
2017-12-26T07:49:17.092Z,4.80
2017-12-26T07:54:46.302Z,6.30
2017-12-26T08:00:14.506Z,2.80
2017-12-26T08:05:43.683Z,3.37
2017-12-26T08:11:11.887Z,4.70
2017-12-26T08:16:40.153Z,4.50
2017-12-26T08:22:08.348Z,4.27
2017-12-26T08:27:36.564Z,2.43
2017-12-26T08:33:04.877Z,2.70
2017-12-26T08:38:33.077Z,1.80
2017-12-26T08:44:01.347Z,2.03
2017-12-26T08:49:30.470Z,3.47
2017-12-26T08:54:58.702Z,2.80
2017-12-26T09:00:26.980Z,2.53
2017-12-26T09:05:55.173Z,4.57
2017-12-26T09:11:30.624Z,3.33
2017-12-26T09:16:58.855Z,2.80
2017-12-26T09:22:27.089Z,4.50
2017-12-26T09:27:55.361Z,5.87
2017-12-26T09:33:23.560Z,2.97
2017-12-26T09:38:53.446Z,2.87
2017-12-26T09:44:21.650Z,4.77
2017-12-26T09:49:55.764Z,2.60
2017-12-26T09:55:25.083Z,4.37
2017-12-26T10:00:53.284Z,3.70
2017-12-26T10:06:21.465Z,3.60
2017-12-26T10:11:49.664Z,2.03
2017-12-26T10:17:17.878Z,2.90
2017-12-26T10:22:47.001Z,2.90
2017-12-26T10:28:15.186Z,2.77
2017-12-26T10:33:43.425Z,2.93
2017-12-26T10:39:23.823Z,3.87
2017-12-26T10:44:52.040Z,4.70
2017-12-26T10:50:20.996Z,3.43
2017-12-26T10:55:49.164Z,6.27
2017-12-26T11:01:23.565Z,2.57
2017-12-26T11:06:51.741Z,2.70
2017-12-26T11:12:21.937Z,8.23
2017-12-26T11:17:50.898Z,5.53
2017-12-26T11:23:19.222Z,6.07
2017-12-26T11:28:49.206Z,7.07
2017-12-26T11:34:17.404Z,5.10
2017-12-26T11:39:57.431Z,8.33
2017-12-26T11:45:25.674Z,3.10
2017-12-26T11:50:53.874Z,4.10
2017-12-26T11:56:22.059Z,3.00
2017-12-26T12:01:51.020Z,5.17
2017-12-26T12:07:23.552Z,3.20
2017-12-26T12:12:51.735Z,2.10
2017-12-26T12:18:20.685Z,2.77
2017-12-26T12:23:53.235Z,2.33
2017-12-26T12:29:21.441Z,4.30
2017-12-26T12:34:49.652Z,3.30
2017-12-26T12:40:17.830Z,2.00
2017-12-26T12:45:46.003Z,1.63
2017-12-26T12:51:14.204Z,1.90
2017-12-26T12:56:42.412Z,1.77
2017-12-26T13:02:10.590Z,2.50
2017-12-26T13:07:41.431Z,3.37
2017-12-26T13:13:16.313Z,2.10
2017-12-26T13:18:44.510Z,1.87
2017-12-26T13:24:13.457Z,2.40
2017-12-26T13:29:42.411Z,5.50
2017-12-26T13:35:10.652Z,2.40
2017-12-26T13:40:38.839Z,1.40
2017-12-26T13:46:08.726Z,2.03
2017-12-26T13:51:36.931Z,1.63
2017-12-26T13:57:05.156Z,1.10
2017-12-26T14:02:33.378Z,1.47
2017-12-26T14:08:01.641Z,2.93
2017-12-26T14:13:30.884Z,2.33
2017-12-26T14:19:04.016Z,3.03
2017-12-26T14:24:32.239Z,1.80
2017-12-26T14:30:00.502Z,1.40
2017-12-26T14:35:29.278Z,2.90
2017-12-26T14:40:58.448Z,1.20
2017-12-26T14:46:26.637Z,1.30
2017-12-26T14:51:55.125Z,1.40
2017-12-26T14:57:24.413Z,2.57
2017-12-26T15:02:53.440Z,1.87
2017-12-26T15:08:21.682Z,1.63
2017-12-26T15:13:50.076Z,1.73
2017-12-26T15:19:19.436Z,3.17
2017-12-26T15:24:47.948Z,2.83
2017-12-26T15:30:18.382Z,2.70
2017-12-26T15:35:46.597Z,3.70
2017-12-26T15:41:14.781Z,2.37
2017-12-26T15:46:42.984Z,3.90
2017-12-26T15:52:11.942Z,3.40
2017-12-26T15:57:40.903Z,2.33
2017-12-26T16:03:09.128Z,4.97
2017-12-26T16:08:37.341Z,3.50
2017-12-26T16:14:05.540Z,3.63
2017-12-26T16:19:33.753Z,2.30
2017-12-26T16:25:02.170Z,2.50
2017-12-26T16:30:32.789Z,2.13
2017-12-26T16:36:00.985Z,4.73
2017-12-26T16:41:29.278Z,3.63
2017-12-26T16:46:58.506Z,3.83
2017-12-26T16:52:26.679Z,3.27
2017-12-26T16:57:55.850Z,3.43
2017-12-26T17:03:25.017Z,2.73
2017-12-26T17:08:54.129Z,3.70
2017-12-26T17:14:22.860Z,3.40
2017-12-26T17:19:51.053Z,4.10
2017-12-26T17:25:19.244Z,3.90
2017-12-26T17:30:47.417Z,4.80
2017-12-26T17:36:15.608Z,4.73
2017-12-26T17:41:43.794Z,5.40
2017-12-26T17:47:13.944Z,5.00
2017-12-26T17:52:42.148Z,4.80
2017-12-26T17:58:20.227Z,6.53
2017-12-26T18:03:48.424Z,7.03
2017-12-26T18:09:16.618Z,9.63
2017-12-26T18:14:44.934Z,8.47
2017-12-26T18:20:13.184Z,7.67
2017-12-26T18:25:41.373Z,11.07
2017-12-26T18:31:14.031Z,15.40
2017-12-26T18:36:42.235Z,11.63
2017-12-26T18:42:10.432Z,15.33
2017-12-26T18:47:52.078Z,10.53
2017-12-26T18:53:21.027Z,11.80
2017-12-26T18:58:49.222Z,13.07
2017-12-26T19:04:18.157Z,17.60
2017-12-26T19:09:46.495Z,18.90
2017-12-26T19:15:15.696Z,17.10
2017-12-26T19:20:43.881Z,15.07
2017-12-26T19:26:12.057Z,17.50
2017-12-26T19:31:40.245Z,15.37
2017-12-26T19:37:27.425Z,16.10
2017-12-26T19:42:55.664Z,19.70
2017-12-26T19:48:23.838Z,20.07
2017-12-26T19:53:53.020Z,19.53
2017-12-26T19:59:21.239Z,16.73
2017-12-26T20:04:49.430Z,17.33
2017-12-26T20:10:18.577Z,19.97
2017-12-26T20:15:46.753Z,10.70
2017-12-26T20:21:14.960Z,11.17
2017-12-26T20:26:43.172Z,10.23
2017-12-26T20:32:11.408Z,9.00
2017-12-26T20:37:39.659Z,13.07
2017-12-26T20:43:08.690Z,21.67
2017-12-26T20:48:37.545Z,17.80
2017-12-26T20:54:05.792Z,32.50
2017-12-26T20:59:34.926Z,22.47
2017-12-26T21:05:03.138Z,10.60
2017-12-26T21:10:31.368Z,16.17
2017-12-26T21:15:59.567Z,21.83
2017-12-26T21:21:27.793Z,14.30
2017-12-26T21:26:55.999Z,8.47
2017-12-26T21:32:24.984Z,6.57
2017-12-26T21:37:53.184Z,9.37
2017-12-26T21:43:22.331Z,10.20
2017-12-26T21:48:50.521Z,10.53
2017-12-26T21:54:19.740Z,8.77
2017-12-26T21:59:47.962Z,9.80
2017-12-26T22:05:16.192Z,13.30
2017-12-26T22:10:44.395Z,12.13
2017-12-26T22:16:26.773Z,11.13
2017-12-26T22:21:55.745Z,11.70
2017-12-26T22:27:23.940Z,13.60
2017-12-26T22:32:57.548Z,11.03
2017-12-26T22:38:25.767Z,12.93
2017-12-26T22:43:54.904Z,9.53
2017-12-26T22:49:23.147Z,12.60
2017-12-26T22:54:51.366Z,16.63
2017-12-26T23:00:19.602Z,10.07
2017-12-26T23:05:47.814Z,7.23
2017-12-26T23:11:16.014Z,12.30
2017-12-26T23:16:51.797Z,14.97
2017-12-26T23:22:19.989Z,25.53
2017-12-26T23:27:56.895Z,19.97
2017-12-26T23:33:30.721Z,8.30
2017-12-26T23:39:04.450Z,7.10
2017-12-26T23:44:38.223Z,27.90
2017-12-26T23:50:11.956Z,10.70
2017-12-26T23:55:45.838Z,16.50
